Time;durP1;ratioP1;P1;durP2;ratioP2;P2;SDS_P1;SDS_P2;PMS_P1;PMS_P2;Temp;Humidity;BMP_temperature;BMP_pressure;BME280_temperature;BME280_humidity;BME280_pressure;Samples;Min_cycle;Max_cycle;Signal;HPM_P1;HPM_P2
2023/06/14 00:02:24;;;;;;;6.37;3.03;;;14.90;99.90;;;;;;5024765;28;20834;-47
2023/06/14 00:04:52;;;;;;;6.47;2.80;;;14.80;99.90;;;;;;5013886;28;20268;-55
2023/06/14 00:07:23;;;;;;;4.23;2.90;;;14.80;99.90;;;;;;5038183;28;20200;-48
2023/06/14 00:09:50;;;;;;;4.20;2.87;;;14.80;99.90;;;;;;5039237;28;20215;-51
2023/06/14 00:12:17;;;;;;;4.97;2.90;;;14.80;99.90;;;;;;5034748;28;20284;-54
2023/06/14 00:14:44;;;;;;;4.60;2.40;;;14.80;99.90;;;;;;5041834;28;20246;-55
2023/06/14 00:17:11;;;;;;;4.57;2.77;;;14.70;99.90;;;;;;5027162;28;20223;-48
2023/06/14 00:19:40;;;;;;;4.13;2.63;;;14.70;99.90;;;;;;5024441;28;20222;-52
2023/06/14 00:22:07;;;;;;;3.30;3.00;;;14.70;99.90;;;;;;5039413;28;20195;-52
2023/06/14 00:24:33;;;;;;;3.63;3.00;;;14.70;99.90;;;;;;5041442;28;20191;-53
2023/06/14 00:27:00;;;;;;;3.63;2.73;;;14.70;99.90;;;;;;5039206;28;20193;-53
2023/06/14 00:29:28;;;;;;;4.97;3.17;;;14.70;99.90;;;;;;5028316;28;20223;-54
2023/06/14 00:31:55;;;;;;;3.70;2.60;;;14.60;99.90;;;;;;5031863;28;20203;-55
2023/06/14 00:34:22;;;;;;;3.77;3.00;;;14.60;99.90;;;;;;5041958;28;20195;-55
2023/06/14 00:36:50;;;;;;;5.53;3.00;;;14.60;99.90;;;;;;5012547;28;20265;-55
2023/06/14 00:39:17;;;;;;;4.33;2.50;;;14.50;99.90;;;;;;5038799;28;20212;-53
2023/06/14 00:41:44;;;;;;;3.70;2.70;;;14.50;99.90;;;;;;5036593;28;20253;-55
2023/06/14 00:44:11;;;;;;;6.33;3.53;;;14.40;99.90;;;;;;5033647;28;20952;-50
2023/06/14 00:46:38;;;;;;;7.27;3.17;;;14.50;99.90;;;;;;5042532;28;20666;-54
2023/06/14 00:49:06;;;;;;;4.23;3.20;;;14.40;99.90;;;;;;5024874;28;20226;-51
2023/06/14 00:51:33;;;;;;;7.53;2.97;;;14.30;99.90;;;;;;5012646;28;20206;-53
2023/06/14 00:54:01;;;;;;;4.80;3.60;;;14.30;99.90;;;;;;5021832;28;20271;-54
2023/06/14 00:56:29;;;;;;;4.90;3.63;;;14.30;99.90;;;;;;5042475;28;20211;-53
2023/06/14 00:58:56;;;;;;;6.67;3.67;;;14.30;99.90;;;;;;5033904;28;20243;-55
2023/06/14 01:01:23;;;;;;;3.67;3.10;;;14.30;99.90;;;;;;5036717;28;20195;-54
2023/06/14 01:03:51;;;;;;;5.13;3.20;;;14.30;99.90;;;;;;5033711;28;20230;-54
2023/06/14 01:06:29;;;;;;;3.83;3.37;;;14.30;99.90;;;;;;5022915;28;20650;-53
2023/06/14 01:09:08;;;;;;;5.40;3.53;;;14.30;99.90;;;;;;5028159;28;20227;-54
2023/06/14 01:11:41;;;;;;;7.60;3.60;;;14.30;99.90;;;;;;5042345;28;20241;-53
2023/06/14 01:14:10;;;;;;;4.30;3.90;;;14.30;99.90;;;;;;5044666;28;20195;-52
2023/06/14 01:16:39;;;;;;;4.23;3.63;;;14.30;99.90;;;;;;5028559;28;20231;-56
2023/06/14 01:19:08;;;;;;;4.67;3.90;;;14.20;99.90;;;;;;5038748;28;20346;-55
2023/06/14 01:21:41;;;;;;;6.40;3.70;;;14.30;99.90;;;;;;5021363;28;20218;-54
2023/06/14 01:24:10;;;;;;;5.23;4.07;;;14.20;99.90;;;;;;5044291;28;20215;-55
2023/06/14 01:26:38;;;;;;;4.53;3.80;;;14.10;99.90;;;;;;5040292;28;20198;-50
2023/06/14 01:29:06;;;;;;;4.90;3.80;;;14.00;99.90;;;;;;5039274;28;20221;-50
2023/06/14 01:31:41;;;;;;;4.93;4.07;;;14.10;99.90;;;;;;5033493;28;20867;-53
2023/06/14 01:34:08;;;;;;;4.87;3.83;;;14.00;99.90;;;;;;5037923;28;20207;-50
2023/06/14 01:36:37;;;;;;;5.43;4.07;;;14.00;99.90;;;;;;5042468;28;20295;-51
2023/06/14 01:39:06;;;;;;;5.80;4.03;;;14.00;99.90;;;;;;5016121;28;20223;-53
2023/06/14 01:41:35;;;;;;;4.23;3.80;;;13.90;99.90;;;;;;5037767;28;20724;-50
2023/06/14 01:44:04;;;;;;;5.50;4.17;;;13.90;99.90;;;;;;5045967;28;20199;-50
2023/06/14 01:46:33;;;;;;;4.57;3.60;;;13.90;99.90;;;;;;5033243;28;20250;-52
2023/06/14 01:49:00;;;;;;;6.20;3.87;;;13.90;99.90;;;;;;5038269;28;20246;-48
2023/06/14 01:51:27;;;;;;;5.33;3.80;;;13.90;99.90;;;;;;5040575;28;20191;-55
2023/06/14 01:53:55;;;;;;;5.20;3.40;;;13.80;99.90;;;;;;5019149;28;20253;-53
2023/06/14 01:56:21;;;;;;;6.40;3.70;;;13.80;99.90;;;;;;5035398;28;20207;-55
2023/06/14 01:58:51;;;;;;;4.33;3.47;;;13.80;99.90;;;;;;5038892;28;20298;-49
2023/06/14 02:01:21;;;;;;;4.67;3.47;;;13.90;99.90;;;;;;5043211;28;20191;-54
2023/06/14 02:03:48;;;;;;;5.97;3.77;;;13.90;99.90;;;;;;5032177;28;20202;-56
2023/06/14 02:06:16;;;;;;;6.30;3.90;;;13.90;99.90;;;;;;5036055;28;20227;-55
2023/06/14 02:08:43;;;;;;;4.27;3.80;;;13.90;99.90;;;;;;5021779;28;20215;-53
2023/06/14 02:11:10;;;;;;;7.67;4.00;;;13.90;99.90;;;;;;5032710;28;20202;-51
2023/06/14 02:13:37;;;;;;;7.03;3.70;;;13.90;99.90;;;;;;5039374;28;20245;-52
2023/06/14 02:16:05;;;;;;;5.47;3.83;;;13.80;99.90;;;;;;5040051;28;20277;-54
2023/06/14 02:18:32;;;;;;;5.70;3.50;;;13.80;99.90;;;;;;5031759;28;20277;-54
2023/06/14 02:20:59;;;;;;;3.87;3.40;;;13.90;99.90;;;;;;5038524;28;20203;-53
2023/06/14 02:23:25;;;;;;;4.57;3.60;;;13.80;99.90;;;;;;5041764;28;20688;-55
2023/06/14 02:25:52;;;;;;;7.03;3.73;;;13.80;99.90;;;;;;5021600;28;20257;-55
2023/06/14 02:28:20;;;;;;;4.97;3.77;;;13.70;99.90;;;;;;5028144;28;20215;-55
2023/06/14 02:30:47;;;;;;;5.30;3.90;;;13.70;99.90;;;;;;5043643;28;20819;-56
2023/06/14 02:33:17;;;;;;;4.60;3.70;;;13.60;99.90;;;;;;5044767;28;20241;-56
2023/06/14 02:35:44;;;;;;;4.83;3.60;;;13.70;99.90;;;;;;5026645;28;21053;-52
2023/06/14 02:38:11;;;;;;;5.07;3.80;;;13.70;99.90;;;;;;5044404;28;20221;-50
2023/06/14 02:40:38;;;;;;;7.27;4.17;;;13.70;99.90;;;;;;5007976;28;20204;-48
2023/06/14 02:43:05;;;;;;;9.33;4.37;;;13.70;99.90;;;;;;5033779;28;20198;-50
2023/06/14 02:45:33;;;;;;;4.77;3.60;;;13.60;99.90;;;;;;5041321;28;20176;-53
2023/06/14 02:47:59;;;;;;;6.03;3.63;;;13.70;99.90;;;;;;5042944;28;20345;-55
2023/06/14 02:50:29;;;;;;;6.90;4.03;;;13.60;99.90;;;;;;5035655;28;20194;-55
2023/06/14 02:52:56;;;;;;;6.53;4.07;;;13.60;99.90;;;;;;5038298;28;20211;-52
2023/06/14 02:55:23;;;;;;;5.07;4.30;;;13.60;99.90;;;;;;5028195;28;20298;-56
2023/06/14 02:57:50;;;;;;;5.20;3.57;;;13.60;99.90;;;;;;5027128;28;20285;-52
2023/06/14 03:00:19;;;;;;;5.33;3.90;;;13.60;99.90;;;;;;5031431;28;20957;-53
2023/06/14 03:02:47;;;;;;;5.20;3.30;;;13.60;99.90;;;;;;5039342;28;20600;-55
2023/06/14 03:05:15;;;;;;;6.67;3.73;;;13.60;99.90;;;;;;5036271;28;20278;-51
2023/06/14 03:07:44;;;;;;;6.17;3.87;;;13.50;99.90;;;;;;5035377;28;20207;-52
2023/06/14 03:10:12;;;;;;;5.27;3.37;;;13.50;99.90;;;;;;5039738;28;20956;-55
2023/06/14 03:12:41;;;;;;;7.93;3.70;;;13.50;99.90;;;;;;5008020;28;20240;-52
2023/06/14 03:15:10;;;;;;;5.10;4.03;;;13.40;99.90;;;;;;5026747;28;20287;-53
2023/06/14 03:17:45;;;;;;;6.37;3.83;;;13.40;99.90;;;;;;5037526;28;20204;-56
2023/06/14 03:20:12;;;;;;;7.27;4.07;;;13.30;99.90;;;;;;5042177;28;20211;-53
2023/06/14 03:22:39;;;;;;;7.00;4.20;;;13.40;99.90;;;;;;5030093;28;20191;-52
2023/06/14 03:25:10;;;;;;;5.97;4.30;;;13.40;99.90;;;;;;5042413;28;20195;-48
2023/06/14 03:27:38;;;;;;;6.57;4.77;;;13.40;99.90;;;;;;5004152;28;20216;-55
2023/06/14 03:30:07;;;;;;;5.47;4.20;;;13.30;99.90;;;;;;5031503;28;20195;-53
2023/06/14 03:32:34;;;;;;;6.63;4.20;;;13.40;99.90;;;;;;5038693;28;20199;-55
2023/06/14 03:35:02;;;;;;;6.57;4.47;;;13.40;99.90;;;;;;5044158;28;20568;-55
2023/06/14 03:37:29;;;;;;;5.80;3.90;;;13.40;99.90;;;;;;5034234;28;20807;-54
2023/06/14 03:39:56;;;;;;;5.07;3.43;;;13.40;99.90;;;;;;5035809;28;20276;-53
2023/06/14 03:42:26;;;;;;;6.03;4.40;;;13.40;99.90;;;;;;5026710;28;20192;-56
2023/06/14 03:44:54;;;;;;;7.07;4.33;;;13.50;99.90;;;;;;5030301;28;20215;-50
2023/06/14 03:47:23;;;;;;;7.53;4.30;;;13.50;99.90;;;;;;5039971;28;20200;-52
2023/06/14 03:49:50;;;;;;;12.30;5.20;;;13.50;99.90;;;;;;5040886;28;20203;-54
2023/06/14 03:52:17;;;;;;;6.97;4.93;;;13.50;99.90;;;;;;5034713;28;20779;-53
2023/06/14 03:54:46;;;;;;;8.20;4.67;;;13.50;99.90;;;;;;5035591;28;20199;-52
2023/06/14 03:57:13;;;;;;;6.47;4.13;;;13.50;99.90;;;;;;5042116;28;20211;-56
2023/06/14 03:59:43;;;;;;;6.40;4.33;;;13.60;99.90;;;;;;5015142;28;20219;-52
2023/06/14 04:02:10;;;;;;;13.40;4.60;;;13.60;99.90;;;;;;5027358;28;20208;-56
2023/06/14 04:04:37;;;;;;;6.77;4.00;;;13.60;99.90;;;;;;5034024;28;20194;-55
2023/06/14 04:07:05;;;;;;;5.67;3.90;;;13.60;99.90;;;;;;5023856;28;20207;-55
2023/06/14 04:09:33;;;;;;;8.33;4.20;;;13.60;99.90;;;;;;5034243;28;20608;-55
2023/06/14 04:11:59;;;;;;;7.87;4.27;;;13.60;99.90;;;;;;5038973;28;20877;-54
2023/06/14 04:14:26;;;;;;;7.10;3.80;;;13.70;99.90;;;;;;5010933;28;20208;-55
2023/06/14 04:16:55;;;;;;;7.73;4.50;;;13.70;99.90;;;;;;5029093;28;20302;-56
2023/06/14 04:19:22;;;;;;;7.93;4.23;;;13.70;99.90;;;;;;5038394;28;20227;-50
2023/06/14 04:21:49;;;;;;;13.43;5.83;;;13.70;99.90;;;;;;5032540;28;20674;-51
2023/06/14 04:24:17;;;;;;;7.87;4.23;;;13.70;99.90;;;;;;5035053;28;20278;-51
2023/06/14 04:26:49;;;;;;;5.23;3.93;;;13.70;99.90;;;;;;5036082;28;20195;-55
2023/06/14 04:29:19;;;;;;;6.47;3.47;;;13.80;99.90;;;;;;5033630;28;20230;-54
2023/06/14 04:31:51;;;;;;;8.40;5.00;;;13.80;99.90;;;;;;5016601;28;20241;-55
2023/06/14 04:34:21;;;;;;;6.33;3.60;;;13.80;99.90;;;;;;5037078;28;20662;-49
2023/06/14 04:36:54;;;;;;;5.57;3.80;;;13.80;99.90;;;;;;5029729;28;20225;-55
2023/06/14 04:39:27;;;;;;;7.70;4.37;;;13.80;99.90;;;;;;5027920;28;20226;-50
2023/06/14 04:41:56;;;;;;;6.70;4.40;;;13.90;99.90;;;;;;5036019;28;20187;-54
2023/06/14 04:44:29;;;;;;;7.40;4.33;;;13.90;99.90;;;;;;5037861;28;20217;-53
2023/06/14 04:46:58;;;;;;;5.67;4.23;;;14.00;99.90;;;;;;5007677;28;20226;-52
2023/06/14 04:49:27;;;;;;;6.67;4.13;;;14.00;99.90;;;;;;5033233;28;20211;-54
2023/06/14 04:51:57;;;;;;;5.03;4.00;;;14.00;99.90;;;;;;5028529;28;20696;-49
2023/06/14 04:54:25;;;;;;;4.23;3.73;;;14.00;99.90;;;;;;5028155;28;20203;-55
2023/06/14 04:56:55;;;;;;;6.00;4.03;;;14.10;99.90;;;;;;5039420;28;20763;-49
2023/06/14 04:59:25;;;;;;;6.83;3.77;;;14.20;99.90;;;;;;5035884;28;20278;-55
2023/06/14 05:01:53;;;;;;;6.53;3.60;;;14.20;99.90;;;;;;5031014;28;20226;-55
2023/06/14 05:04:21;;;;;;;6.77;3.63;;;14.30;99.90;;;;;;5032411;28;20195;-54
2023/06/14 05:06:49;;;;;;;8.00;4.03;;;14.30;99.90;;;;;;5032473;28;21030;-54
2023/06/14 05:09:16;;;;;;;10.03;4.37;;;14.40;99.90;;;;;;5036051;28;20277;-56
2023/06/14 05:11:45;;;;;;;7.60;4.33;;;14.40;99.90;;;;;;5031601;28;20198;-54
2023/06/14 05:14:13;;;;;;;5.37;3.73;;;14.50;99.90;;;;;;5038484;28;20210;-54
2023/06/14 05:16:40;;;;;;;9.50;4.10;;;14.50;99.90;;;;;;5003376;28;20208;-54
2023/06/14 05:19:07;;;;;;;5.77;3.57;;;14.60;99.90;;;;;;5024390;28;20227;-55
2023/06/14 05:21:34;;;;;;;7.10;4.00;;;14.70;99.90;;;;;;5040464;28;20303;-49
2023/06/14 05:24:02;;;;;;;5.40;3.27;;;14.70;99.90;;;;;;5025287;28;20207;-55
2023/06/14 05:26:29;;;;;;;5.17;3.30;;;14.80;99.90;;;;;;5019264;28;20223;-52
2023/06/14 05:28:57;;;;;;;8.87;3.77;;;14.90;99.90;;;;;;5037303;28;20303;-55
2023/06/14 05:31:25;;;;;;;7.53;4.00;;;14.90;99.90;;;;;;5015307;28;20215;-49
2023/06/14 05:33:53;;;;;;;6.90;4.10;;;14.90;99.90;;;;;;5033212;28;20224;-54
2023/06/14 05:36:21;;;;;;;8.37;4.13;;;15.00;99.90;;;;;;5043646;28;20352;-53
2023/06/14 05:38:47;;;;;;;7.20;4.03;;;15.10;99.90;;;;;;5028470;28;20230;-56
2023/06/14 05:41:16;;;;;;;5.87;3.47;;;15.10;99.90;;;;;;5023645;28;21052;-53
2023/06/14 05:43:42;;;;;;;8.00;4.17;;;15.20;99.90;;;;;;5044415;28;20191;-57
2023/06/14 05:46:09;;;;;;;6.70;3.87;;;15.20;99.90;;;;;;5036135;28;20207;-53
2023/06/14 05:48:36;;;;;;;4.23;3.40;;;15.30;99.90;;;;;;5026944;28;20300;-48
2023/06/14 05:51:03;;;;;;;5.07;3.57;;;15.30;99.90;;;;;;5030845;28;20284;-49
2023/06/14 05:53:30;;;;;;;6.60;3.80;;;15.40;99.90;;;;;;5038980;28;20226;-53
2023/06/14 05:55:57;;;;;;;5.80;3.13;;;15.50;99.90;;;;;;5036474;28;20211;-55
2023/06/14 05:58:25;;;;;;;6.77;3.20;;;15.60;99.90;;;;;;5037298;28;20692;-54
2023/06/14 06:00:53;;;;;;;5.70;3.30;;;15.60;99.90;;;;;;5040553;28;20227;-55
2023/06/14 06:03:20;;;;;;;5.93;3.20;;;15.80;99.90;;;;;;5010224;28;20207;-50
2023/06/14 06:05:47;;;;;;;5.60;3.37;;;15.80;99.90;;;;;;5039863;28;20672;-56
2023/06/14 06:08:16;;;;;;;4.90;2.97;;;15.90;99.90;;;;;;5042362;28;20365;-56
2023/06/14 06:10:43;;;;;;;4.63;3.20;;;16.00;99.90;;;;;;5038380;28;20210;-57
2023/06/14 06:13:10;;;;;;;5.90;3.27;;;16.10;99.90;;;;;;5028242;28;20195;-56
2023/06/14 06:15:38;;;;;;;6.83;2.87;;;16.20;99.90;;;;;;5038331;28;20214;-53
2023/06/14 06:18:06;;;;;;;6.37;2.80;;;16.20;99.90;;;;;;5015680;28;20335;-55
2023/06/14 06:20:33;;;;;;;6.27;3.10;;;16.30;99.90;;;;;;5042707;28;20569;-55
2023/06/14 06:23:01;;;;;;;4.83;2.87;;;16.40;99.90;;;;;;5028661;28;20280;-55
2023/06/14 06:25:28;;;;;;;4.10;2.60;;;16.50;99.90;;;;;;5035453;28;20199;-54
2023/06/14 06:27:55;;;;;;;4.77;2.73;;;16.60;99.90;;;;;;5034494;28;20191;-52
2023/06/14 06:30:23;;;;;;;2.80;2.60;;;16.70;99.90;;;;;;5025766;28;20644;-54
2023/06/14 06:32:51;;;;;;;6.50;2.63;;;16.80;99.90;;;;;;5034916;28;20703;-55
2023/06/14 06:35:18;;;;;;;2.97;2.40;;;16.90;99.90;;;;;;5016145;28;20719;-52
2023/06/14 06:37:45;;;;;;;4.22;2.80;;;17.00;99.90;;;;;;5033033;28;20467;-57
2023/06/14 06:40:12;;;;;;;3.17;2.30;;;17.00;99.90;;;;;;5034790;28;20356;-53
2023/06/14 06:42:39;;;;;;;5.33;2.67;;;17.10;99.90;;;;;;5038358;28;20191;-56
2023/06/14 06:45:07;;;;;;;5.10;2.10;;;17.20;99.90;;;;;;5056276;28;20191;-53
2023/06/14 06:47:34;;;;;;;4.10;2.63;;;17.30;99.90;;;;;;5042890;28;20192;-56
2023/06/14 06:50:02;;;;;;;5.00;2.40;;;17.40;99.90;;;;;;5013296;28;20296;-51
2023/06/14 06:52:29;;;;;;;2.70;2.50;;;17.50;99.90;;;;;;5035033;28;20219;-53
2023/06/14 06:54:56;;;;;;;5.23;2.53;;;17.50;99.90;;;;;;5033980;28;20204;-50
2023/06/14 06:57:23;;;;;;;5.10;2.53;;;17.60;99.90;;;;;;5030460;28;20998;-49
2023/06/14 06:59:50;;;;;;;4.17;2.33;;;17.70;99.90;;;;;;5036059;28;20608;-52
2023/06/14 07:02:17;;;;;;;3.30;2.20;;;17.80;99.90;;;;;;5027144;28;20269;-51
2023/06/14 07:04:44;;;;;;;4.50;2.20;;;17.90;99.90;;;;;;5037632;28;20222;-52
2023/06/14 07:07:13;;;;;;;4.57;2.70;;;17.90;99.90;;;;;;5020631;28;20223;-51
2023/06/14 07:09:41;;;;;;;4.87;2.60;;;18.00;99.90;;;;;;5037454;28;21444;-51
2023/06/14 07:12:08;;;;;;;4.40;2.50;;;18.00;99.90;;;;;;5033894;28;20226;-53
2023/06/14 07:14:35;;;;;;;3.27;2.10;;;18.10;99.90;;;;;;5028729;28;20285;-49
2023/06/14 07:17:02;;;;;;;3.23;2.17;;;18.10;99.90;;;;;;5042069;28;20557;-54
2023/06/14 07:19:30;;;;;;;2.73;2.37;;;18.20;99.90;;;;;;5028718;28;21913;-52
2023/06/14 07:21:58;;;;;;;4.37;2.20;;;18.30;99.90;;;;;;5011929;28;20207;-52
2023/06/14 07:24:28;;;;;;;2.87;2.43;;;18.40;99.90;;;;;;5038001;28;20190;-52
2023/06/14 07:26:56;;;;;;;5.27;2.53;;;18.50;99.90;;;;;;5024919;28;20747;-54
2023/06/14 07:29:23;;;;;;;2.23;2.00;;;18.60;99.90;;;;;;5041317;28;20213;-46
2023/06/14 07:31:50;;;;;;;4.67;2.17;;;18.70;99.90;;;;;;5033861;28;20199;-53
2023/06/14 07:34:17;;;;;;;2.33;2.13;;;18.80;99.90;;;;;;5034074;28;20214;-48
2023/06/14 07:36:44;;;;;;;5.93;2.37;;;18.90;99.90;;;;;;5020358;28;20252;-53
2023/06/14 07:39:11;;;;;;;2.97;1.97;;;19.00;99.90;;;;;;5034797;28;20306;-52
2023/06/14 07:41:39;;;;;;;2.83;2.10;;;19.00;99.90;;;;;;5040224;28;20227;-51
2023/06/14 07:44:06;;;;;;;3.27;1.90;;;19.10;99.90;;;;;;5036486;28;20187;-48
2023/06/14 07:46:34;;;;;;;2.30;2.10;;;19.20;99.90;;;;;;5033830;28;20675;-51
2023/06/14 07:49:01;;;;;;;3.37;2.00;;;19.30;99.90;;;;;;5037193;28;20682;-52
2023/06/14 07:51:28;;;;;;;5.80;2.20;;;19.50;99.90;;;;;;5010895;28;20208;-51
2023/06/14 07:53:55;;;;;;;2.67;2.10;;;19.50;99.90;;;;;;5034893;28;20196;-52
2023/06/14 07:56:23;;;;;;;3.77;2.13;;;19.70;99.90;;;;;;5042673;28;20195;-50
2023/06/14 07:58:51;;;;;;;5.17;2.53;;;19.80;99.90;;;;;;5034147;28;20675;-53
2023/06/14 08:01:19;;;;;;;3.03;2.00;;;19.90;99.90;;;;;;5029381;28;20230;-51
2023/06/14 08:03:46;;;;;;;2.57;2.10;;;19.90;99.90;;;;;;5038972;28;20248;-53
2023/06/14 08:06:13;;;;;;;3.40;2.00;;;20.10;99.90;;;;;;5010140;28;21051;-52
2023/06/14 08:08:40;;;;;;;2.27;2.07;;;20.20;99.90;;;;;;5033599;28;20356;-54
2023/06/14 08:11:07;;;;;;;4.87;2.30;;;20.20;99.90;;;;;;5038412;28;20280;-50
2023/06/14 08:13:34;;;;;;;3.67;2.10;;;20.30;99.90;;;;;;5031327;28;20253;-54
2023/06/14 08:16:04;;;;;;;4.33;2.30;;;20.40;99.90;;;;;;5039147;28;20211;-52
2023/06/14 08:18:31;;;;;;;3.87;2.03;;;20.40;99.90;;;;;;5034703;28;20299;-50
2023/06/14 08:20:58;;;;;;;3.10;1.97;;;20.50;99.40;;;;;;5033018;28;20270;-54
2023/06/14 08:23:25;;;;;;;3.23;1.97;;;20.60;98.60;;;;;;5010054;28;20203;-49
2023/06/14 08:25:52;;;;;;;4.10;2.40;;;20.70;98.50;;;;;;5031848;28;20195;-53
2023/06/14 08:28:19;;;;;;;4.67;2.47;;;20.70;98.10;;;;;;5038230;28;20829;-49
2023/06/14 08:30:46;;;;;;;6.13;2.40;;;20.70;98.10;;;;;;5032778;28;20596;-51
2023/06/14 08:33:14;;;;;;;3.30;2.10;;;20.80;97.50;;;;;;5034258;28;20612;-53
2023/06/14 08:35:41;;;;;;;3.03;1.97;;;20.90;96.70;;;;;;5039741;28;20652;-54
2023/06/14 08:38:08;;;;;;;3.93;2.07;;;20.90;96.50;;;;;;5008208;28;20381;-53
2023/06/14 08:40:38;;;;;;;5.23;2.10;;;21.00;96.20;;;;;;5033849;28;20219;-50
2023/06/14 08:43:05;;;;;;;3.53;2.20;;;21.10;95.80;;;;;;5038205;28;20392;-48
2023/06/14 08:45:32;;;;;;;4.37;2.00;;;21.20;95.70;;;;;;5034811;28;20731;-51
2023/06/14 08:48:00;;;;;;;4.60;2.20;;;21.30;95.30;;;;;;5038262;28;20974;-51
2023/06/14 08:50:29;;;;;;;3.47;2.07;;;21.30;94.80;;;;;;5027806;28;20230;-54
2023/06/14 08:53:00;;;;;;;5.83;2.57;;;21.40;95.00;;;;;;5013111;28;20311;-50
2023/06/14 08:55:28;;;;;;;2.50;1.97;;;21.50;94.80;;;;;;5037899;28;20770;-50
2023/06/14 08:57:57;;;;;;;2.27;1.90;;;21.50;94.20;;;;;;5031166;28;20266;-51
2023/06/14 09:00:24;;;;;;;3.50;2.43;;;21.50;94.80;;;;;;5038733;28;20893;-50
2023/06/14 09:02:55;;;;;;;4.43;2.40;;;21.50;95.00;;;;;;5028212;28;20218;-49
2023/06/14 09:05:23;;;;;;;3.57;2.03;;;21.60;94.10;;;;;;5033858;28;20276;-49
2023/06/14 09:07:52;;;;;;;6.07;2.23;;;21.70;93.60;;;;;;5030468;28;20272;-49
2023/06/14 09:10:21;;;;;;;3.90;2.23;;;21.70;93.30;;;;;;5016939;28;20238;-51
2023/06/14 09:12:48;;;;;;;3.77;2.47;;;21.80;93.20;;;;;;5037776;28;20199;-52
2023/06/14 09:15:15;;;;;;;4.67;1.97;;;21.90;92.70;;;;;;5033739;28;20206;-51
2023/06/14 09:17:42;;;;;;;4.40;2.60;;;22.00;92.50;;;;;;5031497;28;20815;-51
2023/06/14 09:20:10;;;;;;;3.57;2.33;;;22.10;92.30;;;;;;5036289;28;20218;-50
2023/06/14 09:22:37;;;;;;;2.60;2.40;;;22.20;91.40;;;;;;5043269;28;20199;-54
2023/06/14 09:25:07;;;;;;;2.70;2.33;;;22.20;91.20;;;;;;5011680;28;20236;-50
2023/06/14 09:27:35;;;;;;;5.23;2.43;;;22.20;91.30;;;;;;5038930;28;20554;-49
2023/06/14 09:30:04;;;;;;;3.03;2.33;;;22.30;91.00;;;;;;5041379;28;20272;-51
2023/06/14 09:32:31;;;;;;;5.50;2.10;;;22.30;90.50;;;;;;5038035;28;20210;-55
2023/06/14 09:34:58;;;;;;;3.37;2.23;;;22.40;90.60;;;;;;5041496;28;20180;-52
2023/06/14 09:37:32;;;;;;;4.17;2.57;;;22.50;90.00;;;;;;5031360;28;20335;-49
2023/06/14 09:40:00;;;;;;;4.90;2.40;;;22.50;89.70;;;;;;5017044;28;20250;-54
2023/06/14 09:42:29;;;;;;;3.23;2.40;;;22.60;89.50;;;;;;5034328;28;20621;-52
2023/06/14 09:44:58;;;;;;;5.47;2.50;;;22.60;88.60;;;;;;5040507;28;20424;-51
2023/06/14 09:47:25;;;;;;;3.07;2.40;;;22.60;89.60;;;;;;5037833;28;20203;-53
2023/06/14 09:49:54;;;;;;;2.40;2.00;;;22.80;89.00;;;;;;5033886;28;20285;-52
2023/06/14 09:52:23;;;;;;;4.50;2.30;;;22.90;87.70;;;;;;5033769;28;20245;-54
2023/06/14 09:54:50;;;;;;;3.93;2.27;;;22.90;86.70;;;;;;5037475;28;20205;-51
2023/06/14 09:57:22;;;;;;;5.00;2.70;;;22.80;87.10;;;;;;5023166;28;20211;-56
2023/06/14 09:59:57;;;;;;;2.95;2.50;;;22.90;85.80;;;;;;5041860;28;20617;-52
2023/06/14 10:02:27;;;;;;;2.60;2.40;;;23.00;84.40;;;;;;5028633;28;20201;-55
2023/06/14 10:05:00;;;;;;;3.60;2.37;;;22.90;83.30;;;;;;5031003;28;20191;-49
2023/06/14 10:07:31;;;;;;;2.58;2.38;;;22.90;82.60;;;;;;5032934;28;20950;-51
2023/06/14 10:09:58;;;;;;;3.55;2.42;;;22.80;83.60;;;;;;5038664;28;20306;-47
2023/06/14 10:12:26;;;;;;;5.60;2.50;;;23.10;83.50;;;;;;5015866;28;20266;-55
2023/06/14 10:14:55;;;;;;;17.27;6.93;;;23.10;82.00;;;;;;5039798;28;20701;-50
2023/06/14 10:17:28;;;;;;;5.90;2.95;;;23.20;81.80;;;;;;5031295;28;20227;-50
2023/06/14 10:20:11;;;;;;;4.82;2.60;;;23.20;81.80;;;;;;5036810;28;20284;-55
2023/06/14 10:22:43;;;;;;;6.60;2.75;;;23.40;79.40;;;;;;5028989;28;20203;-53
2023/06/14 10:25:14;;;;;;;2.50;2.30;;;23.40;79.30;;;;;;5022181;28;20199;-52
2023/06/14 10:27:46;;;;;;;3.28;2.20;;;23.40;79.60;;;;;;5018038;28;20200;-49
2023/06/14 10:30:16;;;;;;;3.10;2.47;;;23.30;79.40;;;;;;5036466;28;20284;-49
2023/06/14 10:33:04;;;;;;;4.13;2.22;;;23.30;79.10;;;;;;5044926;28;20298;-53
2023/06/14 10:35:31;;;;;;;4.95;2.55;;;23.40;78.90;;;;;;5039574;28;20685;-54
2023/06/14 10:38:07;;;;;;;3.17;2.20;;;23.50;78.20;;;;;;5034928;28;20276;-55
2023/06/14 10:40:35;;;;;;;6.68;2.38;;;23.60;77.60;;;;;;5033848;28;20306;-52
2023/06/14 10:43:21;;;;;;;3.85;2.53;;;23.70;77.30;;;;;;5017926;28;20219;-54
2023/06/14 10:46:17;;;;;;;3.83;2.35;;;23.60;77.80;;;;;;5041377;28;20299;-51
2023/06/14 10:48:44;;;;;;;3.97;3.15;;;23.80;78.70;;;;;;5039191;28;20219;-54
2023/06/14 10:51:20;;;;;;;2.40;2.20;;;23.80;77.90;;;;;;5033012;28;20933;-48
2023/06/14 10:53:48;;;;;;;4.50;2.42;;;23.70;77.80;;;;;;5041730;28;20281;-51
2023/06/14 10:56:28;;;;;;;4.38;2.50;;;23.40;78.70;;;;;;5013487;28;20199;-53
2023/06/14 10:58:56;;;;;;;4.53;2.25;;;23.30;79.40;;;;;;5024425;28;20222;-54
2023/06/14 11:01:37;;;;;;;5.93;2.83;;;23.20;79.60;;;;;;5036156;28;20203;-53
2023/06/14 11:04:11;;;;;;;5.15;2.22;;;23.40;78.40;;;;;;5041258;28;20211;-55
2023/06/14 11:06:48;;;;;;;6.63;2.50;;;23.60;79.10;;;;;;5039951;28;20203;-51
2023/06/14 11:09:45;;;;;;;4.18;2.47;;;23.80;76.10;;;;;;5039480;28;20207;-55
2023/06/14 11:12:12;;;;;;;4.35;2.58;;;23.70;77.50;;;;;;5007969;28;20204;-54
2023/06/14 11:14:39;;;;;;;2.17;1.98;;;23.60;78.60;;;;;;5044716;28;20203;-50
2023/06/14 11:17:08;;;;;;;2.92;2.38;;;23.50;79.10;;;;;;5040212;28;20296;-51
2023/06/14 11:19:36;;;;;;;2.58;2.28;;;23.50;78.90;;;;;;5040846;28;20223;-50
2023/06/14 11:22:02;;;;;;;4.47;2.42;;;23.60;78.70;;;;;;5037521;28;20207;-51
2023/06/14 11:24:30;;;;;;;7.50;2.30;;;23.80;77.90;;;;;;5034520;28;20191;-52
2023/06/14 11:26:57;;;;;;;2.38;1.90;;;24.20;76.40;;;;;;5034222;28;20711;-49
2023/06/14 11:29:24;;;;;;;4.82;2.33;;;24.20;76.50;;;;;;5024362;28;20223;-55
2023/06/14 11:31:52;;;;;;;5.10;2.13;;;24.40;76.30;;;;;;5042074;28;20676;-52
2023/06/14 11:34:20;;;;;;;4.13;2.03;;;24.40;75.40;;;;;;5041994;28;20194;-54
2023/06/14 11:36:47;;;;;;;2.58;2.40;;;24.30;74.80;;;;;;5030714;28;20218;-52
2023/06/14 11:39:15;;;;;;;2.47;2.10;;;;;;;;;;5043538;28;20238;-54
2023/06/14 11:41:44;;;;;;;6.05;2.42;;;24.40;73.30;;;;;;5033207;28;20199;-50
2023/06/14 11:44:11;;;;;;;4.47;2.05;;;24.40;73.60;;;;;;5012243;28;20219;-53
2023/06/14 11:46:39;;;;;;;3.78;2.22;;;24.50;73.70;;;;;;5035757;28;20207;-52
2023/06/14 11:49:08;;;;;;;2.35;2.15;;;24.70;72.90;;;;;;5035121;28;20227;-54
2023/06/14 11:51:38;;;;;;;2.50;1.80;;;24.90;71.80;;;;;;5042132;28;20215;-52
2023/06/14 11:54:07;;;;;;;4.40;2.35;;;25.00;70.30;;;;;;5032035;28;20201;-52
2023/06/14 11:56:34;;;;;;;3.72;2.05;;;25.10;69.70;;;;;;5038079;28;20195;-50
2023/06/14 11:59:01;;;;;;;2.55;2.33;;;25.00;69.60;;;;;;5024523;28;20285;-54
2023/06/14 12:01:28;;;;;;;5.90;2.30;;;24.90;69.10;;;;;;5014850;28;20258;-51
2023/06/14 12:03:55;;;;;;;5.15;2.75;;;24.80;69.60;;;;;;5030278;28;20207;-54
2023/06/14 12:06:32;;;;;;;3.75;3.45;;;24.90;69.20;;;;;;5038565;28;20283;-56
2023/06/14 12:09:02;;;;;;;4.35;2.60;;;25.00;69.10;;;;;;5028806;28;22637;-55
2023/06/14 12:11:34;;;;;;;2.78;2.13;;;25.30;69.30;;;;;;5035330;28;20238;-54
2023/06/14 12:14:02;;;;;;;3.85;2.08;;;25.20;69.00;;;;;;5030056;28;20211;-51
2023/06/14 12:16:32;;;;;;;3.03;2.17;;;25.40;68.60;;;;;;5018694;28;20282;-52
2023/06/14 12:19:01;;;;;;;2.28;2.00;;;25.40;67.40;;;;;;5034108;28;20889;-53
2023/06/14 12:21:28;;;;;;;6.72;2.45;;;25.20;67.80;;;;;;5042601;28;20198;-53
2023/06/14 12:23:55;;;;;;;2.63;2.20;;;25.00;68.30;;;;;;5027672;28;20947;-51
2023/06/14 12:26:26;;;;;;;3.45;2.28;;;24.90;68.70;;;;;;5023491;28;20329;-50
2023/06/14 12:28:53;;;;;;;3.58;2.55;;;25.00;68.80;;;;;;5032077;28;20219;-51
2023/06/14 12:31:20;;;;;;;4.05;2.38;;;25.20;68.80;;;;;;5007767;28;20222;-55
2023/06/14 12:33:49;;;;;;;3.42;2.22;;;25.40;67.80;;;;;;5028212;28;20208;-52
2023/06/14 12:36:17;;;;;;;3.45;2.22;;;25.30;67.00;;;;;;5028844;28;20216;-52
2023/06/14 12:38:43;;;;;;;4.70;2.55;;;25.30;67.50;;;;;;5031559;28;20231;-54
2023/06/14 12:41:10;;;;;;;4.40;2.30;;;25.40;66.90;;;;;;5029419;28;20386;-50
2023/06/14 12:43:38;;;;;;;2.65;2.22;;;25.40;66.50;;;;;;5037613;28;20196;-52
2023/06/14 12:46:06;;;;;;;3.25;1.92;;;25.70;66.60;;;;;;5011911;28;20222;-53
2023/06/14 12:48:34;;;;;;;2.78;2.58;;;26.00;66.20;;;;;;5028653;28;20324;-52
2023/06/14 12:51:01;;;;;;;3.20;1.83;;;26.30;65.40;;;;;;5038970;28;20206;-53
2023/06/14 12:53:27;;;;;;;3.72;2.40;;;26.20;65.00;;;;;;5041462;28;20188;-54
2023/06/14 12:55:54;;;;;;;6.30;2.60;;;26.30;64.80;;;;;;5037548;28;20253;-55